ZKJEE NZNS-NZHK

Flight info

Callsign ZKJEE
Flight time 1h 4m
Altitude 10000
Route CONOR H267 WS Q197 OSRIB
Aircraft DHC6/L-SDFGR/C

Departure

Time 2026-04-28 01:13
Airport Nelson Airport (NZNS)

Arrival

Time 2026-04-28 02:17
Airport Hokitika Airfield (NZHK)
Time Latitude Longitude Altitude Speed Heading
2026-04-28 01:04 -41.30124 173.21915 15 ft 0 kts 41°
2026-04-28 01:06 -41.30123 173.21915 15 ft 0 kts 41°
2026-04-28 01:12 -41.29989 173.22102 16 ft 67 kts 35°
2026-04-28 01:12 -41.29477 173.22618 28 ft 109 kts 37°
2026-04-28 01:12 -41.28878 173.23256 274 ft 115 kts 41°
2026-04-28 01:12 -41.28131 173.23610 547 ft 120 kts 352°
2026-04-28 01:13 -41.27504 173.22919 865 ft 125 kts 297°
2026-04-28 01:13 -41.26917 173.20654 1508 ft 134 kts 291°
2026-04-28 01:13 -41.26594 173.19481 1816 ft 136 kts 298°
2026-04-28 01:14 -41.26203 173.18328 2130 ft 137 kts 295°
2026-04-28 01:14 -41.25699 173.17224 2444 ft 140 kts 304°
2026-04-28 01:14 -41.25079 173.16230 2749 ft 141 kts 311°
2026-04-28 01:14 -41.24371 173.15317 3053 ft 142 kts 315°
2026-04-28 01:15 -41.23638 173.14436 3355 ft 142 kts 315°
2026-04-28 01:15 -41.22920 173.13538 3654 ft 142 kts 311°
2026-04-28 01:15 -41.22538 173.12369 3955 ft 140 kts 278°
2026-04-28 01:15 -41.22497 173.11085 4262 ft 140 kts 271°
2026-04-28 01:16 -41.22507 173.09791 4564 ft 140 kts 271°
2026-04-28 01:16 -41.22511 173.08498 4866 ft 139 kts 271°
2026-04-28 01:16 -41.22503 173.07196 5171 ft 139 kts 271°
2026-04-28 01:16 -41.22489 173.05934 5466 ft 139 kts 272°
2026-04-28 01:17 -41.22467 173.04652 5766 ft 139 kts 273°
2026-04-28 01:17 -41.22439 173.03357 6069 ft 139 kts 273°
2026-04-28 01:17 -41.22419 173.02086 6367 ft 139 kts 272°
2026-04-28 01:17 -41.22399 173.00804 6667 ft 139 kts 273°
2026-04-28 01:18 -41.22650 172.99574 6959 ft 144 kts 241°
2026-04-28 01:18 -41.23303 172.98569 7269 ft 146 kts 232°
2026-04-28 01:18 -41.24036 172.97598 7573 ft 147 kts 231°
2026-04-28 01:18 -41.24757 172.96646 7872 ft 147 kts 231°
2026-04-28 01:19 -41.25489 172.95684 8173 ft 148 kts 231°
2026-04-28 01:19 -41.26217 172.94720 8473 ft 148 kts 231°
2026-04-28 01:19 -41.26958 172.93742 8776 ft 148 kts 231°
2026-04-28 01:19 -41.27693 172.92776 9076 ft 149 kts 231°
2026-04-28 01:20 -41.28429 172.91813 9375 ft 149 kts 231°
2026-04-28 01:20 -41.29160 172.90841 9674 ft 149 kts 232°
2026-04-28 01:20 -41.29895 172.89851 9884 ft 154 kts 232°
2026-04-28 01:20 -41.30672 172.88812 9984 ft 164 kts 231°
2026-04-28 01:21 -41.31503 172.87705 10005 ft 174 kts 231°
2026-04-28 01:21 -41.32375 172.86539 10006 ft 181 kts 231°
2026-04-28 01:21 -41.33288 172.85309 10004 ft 186 kts 231°
2026-04-28 01:21 -41.34204 172.84097 10002 ft 188 kts 230°
2026-04-28 01:22 -41.35118 172.82872 10001 ft 189 kts 231°
2026-04-28 01:22 -41.36062 172.81610 10001 ft 190 kts 230°
2026-04-28 01:22 -41.36986 172.80366 10000 ft 189 kts 231°
2026-04-28 01:22 -41.37895 172.79146 9998 ft 186 kts 232°
2026-04-28 01:23 -41.38710 172.77810 9999 ft 182 kts 238°
2026-04-28 01:23 -41.39443 172.76456 9999 ft 180 kts 240°
2026-04-28 01:23 -41.40159 172.75100 10000 ft 179 kts 240°
2026-04-28 01:23 -41.40873 172.73743 10000 ft 178 kts 240°
2026-04-28 01:24 -41.41585 172.72399 10003 ft 177 kts 239°
2026-04-28 01:24 -41.42308 172.71051 10004 ft 177 kts 239°
2026-04-28 01:24 -41.43026 172.69719 10004 ft 177 kts 239°
2026-04-28 01:24 -41.43736 172.68403 10004 ft 176 kts 239°
2026-04-28 01:25 -41.44461 172.67072 10004 ft 176 kts 238°
2026-04-28 01:25 -41.45179 172.65751 10004 ft 176 kts 239°
2026-04-28 01:25 -41.45895 172.64436 10005 ft 176 kts 238°
2026-04-28 01:25 -41.46505 172.63037 10006 ft 173 kts 250°
2026-04-28 01:26 -41.46899 172.61536 10007 ft 172 kts 256°
2026-04-28 01:26 -41.47249 172.60010 10006 ft 172 kts 256°
2026-04-28 01:26 -41.47631 172.58483 10006 ft 172 kts 253°
2026-04-28 01:26 -41.48038 172.57004 10007 ft 172 kts 252°
2026-04-28 01:27 -41.48451 172.55511 10008 ft 172 kts 253°
2026-04-28 01:27 -41.48848 172.54004 10002 ft 172 kts 254°
2026-04-28 01:27 -41.49248 172.52487 10001 ft 172 kts 254°
2026-04-28 01:27 -41.49652 172.51000 10000 ft 172 kts 253°
2026-04-28 01:28 -41.50059 172.49476 10008 ft 171 kts 251°
2026-04-28 01:28 -41.50459 172.47989 10028 ft 170 kts 251°
2026-04-28 01:28 -41.50861 172.46508 10034 ft 170 kts 251°
2026-04-28 01:28 -41.51127 172.45517 10033 ft 170 kts 251°
2026-04-28 01:29 -41.51657 172.43531 10006 ft 171 kts 250°
2026-04-28 01:29 -41.51929 172.42538 10004 ft 170 kts 250°
2026-04-28 01:29 -41.52341 172.41047 10005 ft 170 kts 250°
2026-04-28 01:29 -41.52749 172.39566 10006 ft 170 kts 250°
2026-04-28 01:30 -41.53149 172.38065 10007 ft 170 kts 250°
2026-04-28 01:30 -41.53546 172.36589 10007 ft 170 kts 250°
2026-04-28 01:30 -41.53944 172.35084 10007 ft 170 kts 250°
2026-04-28 01:30 -41.54339 172.33607 10007 ft 170 kts 250°
2026-04-28 01:31 -41.54730 172.32126 10007 ft 170 kts 250°
2026-04-28 01:31 -41.55127 172.30637 10007 ft 170 kts 251°
2026-04-28 01:31 -41.55517 172.29154 10006 ft 170 kts 250°
2026-04-28 01:31 -41.55918 172.27658 10006 ft 170 kts 251°
2026-04-28 01:32 -41.56309 172.26172 10006 ft 170 kts 250°
2026-04-28 01:32 -41.56706 172.24689 10012 ft 169 kts 250°
2026-04-28 01:32 -41.57099 172.23213 10014 ft 170 kts 250°
2026-04-28 01:32 -41.57489 172.21728 10015 ft 170 kts 250°
2026-04-28 01:33 -41.57891 172.20232 10016 ft 170 kts 250°
2026-04-28 01:33 -41.58291 172.18742 10016 ft 170 kts 250°
2026-04-28 01:33 -41.58695 172.17241 10016 ft 170 kts 250°
2026-04-28 01:33 -41.59096 172.15745 10016 ft 170 kts 250°
2026-04-28 01:34 -41.59495 172.14261 10016 ft 170 kts 250°
2026-04-28 01:34 -41.59900 172.12756 10016 ft 170 kts 250°
2026-04-28 01:34 -41.60296 172.11280 10016 ft 170 kts 250°
2026-04-28 01:34 -41.60698 172.09785 10016 ft 170 kts 250°
2026-04-28 01:35 -41.61101 172.08286 9994 ft 171 kts 250°
2026-04-28 01:35 -41.61502 172.06792 9988 ft 171 kts 250°
2026-04-28 01:35 -41.61899 172.05315 9987 ft 170 kts 250°
2026-04-28 01:35 -41.62301 172.03817 9987 ft 170 kts 250°
2026-04-28 01:36 -41.62696 172.02330 9988 ft 170 kts 250°
2026-04-28 01:36 -41.63084 172.00822 9989 ft 170 kts 250°
2026-04-28 01:36 -41.63480 171.99327 9989 ft 170 kts 250°
2026-04-28 01:36 -41.63866 171.97839 9989 ft 170 kts 250°
2026-04-28 01:37 -41.64258 171.96356 9989 ft 170 kts 250°
2026-04-28 01:37 -41.64648 171.94847 9997 ft 169 kts 250°
2026-04-28 01:37 -41.65044 171.93343 10000 ft 169 kts 250°
2026-04-28 01:37 -41.65428 171.91861 10000 ft 169 kts 250°
2026-04-28 01:38 -41.65812 171.90401 10000 ft 169 kts 250°
2026-04-28 01:38 -41.66203 171.88882 10000 ft 169 kts 250°
2026-04-28 01:38 -41.66595 171.87400 10000 ft 169 kts 250°
2026-04-28 01:38 -41.66977 171.85915 10000 ft 169 kts 250°
2026-04-28 01:39 -41.67376 171.84409 10000 ft 169 kts 250°
2026-04-28 01:39 -41.67757 171.82925 10000 ft 169 kts 251°
2026-04-28 01:39 -41.68149 171.81436 10000 ft 169 kts 250°
2026-04-28 01:39 -41.68528 171.79969 10000 ft 169 kts 251°
2026-04-28 01:40 -41.68924 171.78464 10001 ft 169 kts 250°
2026-04-28 01:40 -41.69305 171.76983 10001 ft 169 kts 250°
2026-04-28 01:40 -41.69695 171.75498 10002 ft 169 kts 251°
2026-04-28 01:40 -41.70085 171.73993 10002 ft 169 kts 250°
2026-04-28 01:41 -41.70471 171.72510 10002 ft 169 kts 251°
2026-04-28 01:41 -41.70859 171.71020 10002 ft 169 kts 250°
2026-04-28 01:41 -41.71244 171.69533 10002 ft 169 kts 251°
2026-04-28 01:41 -41.71633 171.68049 10002 ft 169 kts 250°
2026-04-28 01:42 -41.72016 171.66561 10002 ft 169 kts 250°
2026-04-28 01:42 -41.72410 171.65057 10003 ft 169 kts 251°
2026-04-28 01:42 -41.72792 171.63574 10003 ft 169 kts 250°
2026-04-28 01:42 -41.73177 171.62104 10003 ft 169 kts 251°
2026-04-28 01:43 -41.73565 171.60596 10003 ft 169 kts 250°
2026-04-28 01:43 -41.73952 171.59111 10002 ft 169 kts 251°
2026-04-28 01:43 -41.74329 171.57622 10002 ft 169 kts 251°
2026-04-28 01:43 -41.74685 171.56132 10002 ft 169 kts 252°
2026-04-28 01:44 -41.75026 171.54625 10003 ft 169 kts 253°
2026-04-28 01:44 -41.75365 171.53107 10003 ft 169 kts 252°
2026-04-28 01:44 -41.75709 171.51607 10003 ft 169 kts 252°
2026-04-28 01:44 -41.76047 171.50097 10003 ft 169 kts 252°
2026-04-28 01:45 -41.76396 171.48575 10003 ft 169 kts 252°
2026-04-28 01:45 -41.76735 171.47063 10003 ft 169 kts 252°
2026-04-28 01:45 -41.77077 171.45558 10003 ft 169 kts 253°
2026-04-28 01:45 -41.77419 171.44053 10003 ft 169 kts 252°
2026-04-28 01:46 -41.77759 171.42540 10003 ft 169 kts 253°
2026-04-28 01:46 -41.78100 171.41047 10003 ft 169 kts 252°
2026-04-28 01:46 -41.78439 171.39533 10003 ft 169 kts 253°
2026-04-28 01:46 -41.78782 171.38029 10003 ft 169 kts 252°
2026-04-28 01:47 -41.79123 171.36515 10003 ft 169 kts 253°
2026-04-28 01:47 -41.79462 171.35011 10003 ft 169 kts 252°
2026-04-28 01:47 -41.79805 171.33495 10003 ft 169 kts 253°
2026-04-28 01:47 -41.80145 171.31988 10003 ft 169 kts 252°
2026-04-28 01:48 -41.80490 171.30460 10003 ft 169 kts 253°
2026-04-28 01:48 -41.80828 171.28956 10003 ft 169 kts 252°
2026-04-28 01:48 -41.81168 171.27453 10003 ft 169 kts 253°
2026-04-28 01:48 -41.81519 171.25898 10003 ft 169 kts 252°
2026-04-28 01:49 -41.81857 171.24390 10003 ft 169 kts 253°
2026-04-28 01:49 -41.82203 171.22863 10003 ft 169 kts 252°
2026-04-28 01:49 -41.82537 171.21374 10003 ft 169 kts 253°
2026-04-28 01:49 -41.82893 171.19852 10000 ft 169 kts 249°
2026-04-28 01:50 -41.83668 171.18720 9999 ft 173 kts 212°
2026-04-28 01:50 -41.84835 171.18223 10011 ft 176 kts 198°
2026-04-28 01:50 -41.85628 171.18010 10006 ft 177 kts 196°
2026-04-28 01:50 -41.87250 171.17623 10003 ft 178 kts 195°
2026-04-28 01:51 -41.88065 171.17434 10003 ft 178 kts 195°
2026-04-28 01:51 -41.89705 171.17054 10003 ft 178 kts 195°
2026-04-28 01:51 -41.90927 171.16771 10003 ft 178 kts 195°
2026-04-28 01:51 -41.91734 171.16584 10003 ft 178 kts 195°
2026-04-28 01:52 -41.92963 171.16300 10003 ft 178 kts 195°
2026-04-28 01:52 -41.94184 171.16017 10003 ft 178 kts 195°
2026-04-28 01:52 -41.95398 171.15730 10003 ft 178 kts 195°
2026-04-28 01:52 -41.96614 171.15424 10003 ft 178 kts 196°
2026-04-28 01:53 -41.97825 171.15114 10003 ft 178 kts 196°
2026-04-28 01:53 -41.99032 171.14805 10003 ft 177 kts 196°
2026-04-28 01:53 -42.00248 171.14494 10003 ft 177 kts 196°
2026-04-28 01:53 -42.01471 171.14181 10003 ft 177 kts 196°
2026-04-28 01:54 -42.02669 171.13877 10003 ft 177 kts 196°
2026-04-28 01:54 -42.03899 171.13566 10003 ft 177 kts 196°
2026-04-28 01:54 -42.05108 171.13261 10003 ft 177 kts 196°
2026-04-28 01:54 -42.06318 171.12956 10003 ft 177 kts 196°
2026-04-28 01:55 -42.07523 171.12652 10003 ft 177 kts 196°
2026-04-28 01:55 -42.08736 171.12346 10003 ft 177 kts 196°
2026-04-28 01:55 -42.09951 171.12039 10003 ft 177 kts 196°
2026-04-28 01:55 -42.11160 171.11735 10003 ft 177 kts 196°
2026-04-28 01:56 -42.12370 171.11431 10003 ft 177 kts 196°
2026-04-28 01:56 -42.13599 171.11120 10003 ft 177 kts 196°
2026-04-28 01:56 -42.14806 171.10799 10003 ft 177 kts 196°
2026-04-28 01:56 -42.16013 171.10488 10003 ft 177 kts 196°
2026-04-28 01:57 -42.17219 171.10167 10003 ft 177 kts 196°
2026-04-28 01:57 -42.18429 171.09856 10003 ft 177 kts 196°
2026-04-28 01:57 -42.19647 171.09529 10003 ft 177 kts 197°
2026-04-28 01:57 -42.20852 171.09222 10003 ft 177 kts 196°
2026-04-28 01:58 -42.22051 171.08884 10000 ft 175 kts 201°
2026-04-28 01:58 -42.23173 171.08267 10005 ft 172 kts 210°
2026-04-28 01:58 -42.24239 171.07545 10003 ft 172 kts 212°
2026-04-28 01:58 -42.25301 171.06801 10003 ft 172 kts 212°
2026-04-28 01:59 -42.26364 171.06054 10003 ft 172 kts 212°
2026-04-28 01:59 -42.27424 171.05308 10003 ft 172 kts 212°
2026-04-28 01:59 -42.28483 171.04564 10003 ft 172 kts 212°
2026-04-28 01:59 -42.29556 171.03810 10003 ft 172 kts 212°
2026-04-28 02:00 -42.30614 171.03066 10003 ft 172 kts 212°
2026-04-28 02:00 -42.31673 171.02322 10003 ft 172 kts 212°
2026-04-28 02:00 -42.32737 171.01574 10003 ft 172 kts 212°
2026-04-28 02:00 -42.33794 171.00831 10003 ft 172 kts 212°
2026-04-28 02:01 -42.34864 171.00078 10003 ft 172 kts 212°
2026-04-28 02:01 -42.35931 170.99328 10003 ft 172 kts 212°
2026-04-28 02:01 -42.37001 170.98576 10003 ft 172 kts 212°
2026-04-28 02:01 -42.38070 170.97829 10003 ft 172 kts 212°
2026-04-28 02:02 -42.39128 170.97091 10003 ft 172 kts 212°
2026-04-28 02:02 -42.40188 170.96354 10003 ft 171 kts 212°
2026-04-28 02:02 -42.41241 170.95623 10003 ft 171 kts 212°
2026-04-28 02:02 -42.42323 170.94871 10003 ft 171 kts 212°
2026-04-28 02:03 -42.43356 170.94153 10003 ft 171 kts 212°
2026-04-28 02:03 -42.44444 170.93397 10003 ft 171 kts 212°
2026-04-28 02:03 -42.45513 170.92654 10003 ft 171 kts 212°
2026-04-28 02:03 -42.46574 170.91916 10003 ft 171 kts 212°
2026-04-28 02:04 -42.47624 170.91168 10003 ft 171 kts 212°
2026-04-28 02:04 -42.48692 170.90413 10003 ft 171 kts 212°
2026-04-28 02:04 -42.49746 170.89661 10003 ft 171 kts 212°
2026-04-28 02:04 -42.50802 170.88917 10003 ft 171 kts 212°
2026-04-28 02:05 -42.51845 170.88166 10001 ft 171 kts 212°
2026-04-28 02:05 -42.52925 170.87407 10000 ft 171 kts 212°
2026-04-28 02:05 -42.53975 170.86658 10000 ft 171 kts 212°
2026-04-28 02:05 -42.55029 170.85907 10001 ft 171 kts 213°
2026-04-28 02:06 -42.56075 170.85159 10000 ft 171 kts 212°
2026-04-28 02:06 -42.57142 170.84412 10000 ft 171 kts 212°
2026-04-28 02:06 -42.58182 170.83667 10000 ft 171 kts 212°
2026-04-28 02:06 -42.59258 170.82905 10000 ft 171 kts 213°
2026-04-28 02:07 -42.60315 170.82152 10000 ft 171 kts 212°
2026-04-28 02:07 -42.61380 170.81397 10000 ft 171 kts 213°
2026-04-28 02:07 -42.62436 170.80643 10000 ft 171 kts 212°
2026-04-28 02:07 -42.63489 170.79895 9999 ft 171 kts 213°
2026-04-28 02:08 -42.64543 170.79143 9999 ft 171 kts 212°
2026-04-28 02:08 -42.65617 170.78382 9999 ft 171 kts 213°
2026-04-28 02:08 -42.66669 170.77626 9999 ft 171 kts 212°
2026-04-28 02:08 -42.67722 170.76882 9956 ft 170 kts 212°
2026-04-28 02:09 -42.68719 170.76168 9695 ft 157 kts 213°
2026-04-28 02:09 -42.69676 170.75485 9436 ft 150 kts 213°
2026-04-28 02:09 -42.70582 170.74841 9181 ft 144 kts 213°
2026-04-28 02:09 -42.71454 170.74223 8930 ft 140 kts 213°
2026-04-28 02:10 -42.72307 170.73606 8676 ft 138 kts 214°
2026-04-28 02:10 -42.73216 170.73172 8409 ft 147 kts 189°
2026-04-28 02:10 -42.74223 170.73605 8175 ft 155 kts 162°
2026-04-28 02:10 -42.75153 170.74353 7928 ft 156 kts 156°
2026-04-28 02:11 -42.76051 170.75155 7681 ft 156 kts 155°
2026-04-28 02:11 -42.76974 170.75969 7426 ft 155 kts 156°
2026-04-28 02:11 -42.77878 170.76762 7177 ft 155 kts 156°
2026-04-28 02:11 -42.78783 170.77541 6927 ft 154 kts 156°
2026-04-28 02:12 -42.79666 170.78402 6666 ft 160 kts 142°
2026-04-28 02:12 -42.80049 170.79861 6406 ft 172 kts 91°
2026-04-28 02:12 -42.79606 170.81331 6171 ft 169 kts 50°
2026-04-28 02:12 -42.78847 170.82543 5931 ft 168 kts 46°
2026-04-28 02:13 -42.78114 170.83787 5681 ft 169 kts 51°
2026-04-28 02:13 -42.77456 170.85105 5433 ft 169 kts 56°
2026-04-28 02:13 -42.76831 170.86459 5183 ft 169 kts 58°
2026-04-28 02:13 -42.76196 170.87815 4942 ft 167 kts 54°
2026-04-28 02:14 -42.75616 170.89054 4735 ft 142 kts 55°
2026-04-28 02:14 -42.75134 170.90112 4423 ft 126 kts 55°
2026-04-28 02:14 -42.74947 170.90522 4275 ft 124 kts 55°
2026-04-28 02:15 -42.74615 170.91260 4007 ft 121 kts 56°
2026-04-28 02:15 -42.74182 170.92220 3656 ft 119 kts 56°
2026-04-28 02:16 -42.73713 170.93200 3097 ft 129 kts 53°
2026-04-28 02:16 -42.73194 170.94200 2412 ft 130 kts 54°
2026-04-28 02:16 -42.72702 170.95168 1658 ft 114 kts 57°
2026-04-28 02:16 -42.72320 170.96027 1045 ft 100 kts 57°
2026-04-28 02:17 -42.71973 170.96784 618 ft 91 kts 57°
2026-04-28 02:17 -42.71742 170.97249 398 ft 85 kts 54°
2026-04-28 02:17 -42.71344 170.98016 168 ft 62 kts 56°
2026-04-28 02:17 -42.71208 170.98302 155 ft 5 kts 58°
2026-04-28 02:18 -42.71207 170.98303 155 ft 0 kts 58°